sensor_id;sensor_type;location;lat;lon;timestamp;P1;durP1;ratioP1;P2;durP2;ratioP2
35969;SDS011;22448;51.298;6.430;2022-08-05T00:00:12;12.35;;;5.43;;
35969;SDS011;22448;51.298;6.430;2022-08-05T00:02:42;11.63;;;5.45;;
35969;SDS011;22448;51.298;6.430;2022-08-05T00:05:18;13.43;;;5.93;;
35969;SDS011;22448;51.298;6.430;2022-08-05T00:08:06;13.50;;;5.30;;
35969;SDS011;22448;51.298;6.430;2022-08-05T00:10:55;14.20;;;6.05;;
35969;SDS011;22448;51.298;6.430;2022-08-05T00:13:30;8.77;;;4.67;;
35969;SDS011;22448;51.298;6.430;2022-08-05T00:16:10;12.98;;;6.55;;
35969;SDS011;22448;51.298;6.430;2022-08-05T00:18:44;11.85;;;6.35;;
35969;SDS011;22448;51.298;6.430;2022-08-05T00:21:14;17.08;;;7.18;;
35969;SDS011;22448;51.298;6.430;2022-08-05T00:23:43;14.75;;;6.93;;
35969;SDS011;22448;51.298;6.430;2022-08-05T00:26:31;14.98;;;7.18;;
35969;SDS011;22448;51.298;6.430;2022-08-05T00:28:58;11.80;;;6.75;;
35969;SDS011;22448;51.298;6.430;2022-08-05T00:31:25;19.10;;;7.65;;
35969;SDS011;22448;51.298;6.430;2022-08-05T00:34:12;16.70;;;7.47;;
35969;SDS011;22448;51.298;6.430;2022-08-05T00:36:59;11.18;;;7.00;;
35969;SDS011;22448;51.298;6.430;2022-08-05T00:39:37;13.77;;;7.07;;
35969;SDS011;22448;51.298;6.430;2022-08-05T00:42:10;15.25;;;8.15;;
35969;SDS011;22448;51.298;6.430;2022-08-05T00:44:57;17.02;;;8.43;;
35969;SDS011;22448;51.298;6.430;2022-08-05T00:47:25;16.90;;;8.88;;
35969;SDS011;22448;51.298;6.430;2022-08-05T00:50:12;15.57;;;8.00;;
35969;SDS011;22448;51.298;6.430;2022-08-05T00:52:40;16.83;;;8.02;;
35969;SDS011;22448;51.298;6.430;2022-08-05T00:55:11;17.35;;;8.05;;
35969;SDS011;22448;51.298;6.430;2022-08-05T00:57:38;14.93;;;8.15;;
35969;SDS011;22448;51.298;6.430;2022-08-05T01:00:28;18.92;;;9.02;;
35969;SDS011;22448;51.298;6.430;2022-08-05T01:02:57;15.15;;;8.57;;
35969;SDS011;22448;51.298;6.430;2022-08-05T01:05:25;14.52;;;8.60;;
35969;SDS011;22448;51.298;6.430;2022-08-05T01:07:53;15.15;;;8.00;;
35969;SDS011;22448;51.298;6.430;2022-08-05T01:10:42;16.65;;;8.48;;
35969;SDS011;22448;51.298;6.430;2022-08-05T01:13:20;15.38;;;8.45;;
35969;SDS011;22448;51.298;6.430;2022-08-05T01:16:38;16.65;;;8.43;;
35969;SDS011;22448;51.298;6.430;2022-08-05T01:19:15;18.77;;;9.05;;
35969;SDS011;22448;51.298;6.430;2022-08-05T01:30:21;22.08;;;9.85;;
35969;SDS011;22448;51.298;6.430;2022-08-05T01:33:01;21.92;;;10.10;;
35969;SDS011;22448;51.298;6.430;2022-08-05T01:35:35;15.02;;;9.52;;
35969;SDS011;22448;51.298;6.430;2022-08-05T01:38:18;14.10;;;9.85;;
35969;SDS011;22448;51.298;6.430;2022-08-05T01:40:53;13.45;;;9.65;;
35969;SDS011;22448;51.298;6.430;2022-08-05T01:43:24;15.52;;;9.82;;
35969;SDS011;22448;51.298;6.430;2022-08-05T01:45:51;16.38;;;9.95;;
35969;SDS011;22448;51.298;6.430;2022-08-05T01:48:23;22.33;;;11.02;;
35969;SDS011;22448;51.298;6.430;2022-08-05T01:50:52;21.30;;;10.75;;
35969;SDS011;22448;51.298;6.430;2022-08-05T01:53:22;17.90;;;10.98;;
35969;SDS011;22448;51.298;6.430;2022-08-05T01:56:10;20.30;;;11.05;;
35969;SDS011;22448;51.298;6.430;2022-08-05T01:59:02;15.15;;;10.15;;
35969;SDS011;22448;51.298;6.430;2022-08-05T02:01:33;18.92;;;10.63;;
35969;SDS011;22448;51.298;6.430;2022-08-05T02:04:06;15.50;;;11.20;;
35969;SDS011;22448;51.298;6.430;2022-08-05T02:06:36;17.98;;;10.23;;
35969;SDS011;22448;51.298;6.430;2022-08-05T02:09:05;18.33;;;11.30;;
35969;SDS011;22448;51.298;6.430;2022-08-05T02:11:36;18.85;;;11.50;;
35969;SDS011;22448;51.298;6.430;2022-08-05T02:14:31;14.75;;;11.32;;
35969;SDS011;22448;51.298;6.430;2022-08-05T02:17:04;18.48;;;12.05;;
35969;SDS011;22448;51.298;6.430;2022-08-05T02:19:58;22.08;;;11.95;;
35969;SDS011;22448;51.298;6.430;2022-08-05T02:22:29;22.83;;;12.45;;
35969;SDS011;22448;51.298;6.430;2022-08-05T02:25:05;22.83;;;13.45;;
35969;SDS011;22448;51.298;6.430;2022-08-05T02:27:38;23.83;;;13.30;;
35969;SDS011;22448;51.298;6.430;2022-08-05T02:30:27;19.38;;;12.77;;
35969;SDS011;22448;51.298;6.430;2022-08-05T02:33:17;23.48;;;14.20;;
35969;SDS011;22448;51.298;6.430;2022-08-05T02:36:06;22.83;;;15.02;;
35969;SDS011;22448;51.298;6.430;2022-08-05T02:38:40;27.75;;;15.85;;
35969;SDS011;22448;51.298;6.430;2022-08-05T02:41:19;24.13;;;16.08;;
35969;SDS011;22448;51.298;6.430;2022-08-05T02:43:54;27.20;;;16.70;;
35969;SDS011;22448;51.298;6.430;2022-08-05T02:46:37;25.02;;;15.68;;
35969;SDS011;22448;51.298;6.430;2022-08-05T02:49:28;25.23;;;15.75;;
35969;SDS011;22448;51.298;6.430;2022-08-05T02:52:04;27.98;;;15.73;;
35969;SDS011;22448;51.298;6.430;2022-08-05T02:54:34;21.63;;;16.05;;
35969;SDS011;22448;51.298;6.430;2022-08-05T02:59:57;26.17;;;16.60;;
35969;SDS011;22448;51.298;6.430;2022-08-05T03:02:27;26.77;;;15.88;;
35969;SDS011;22448;51.298;6.430;2022-08-05T03:04:57;23.73;;;17.03;;
35969;SDS011;22448;51.298;6.430;2022-08-05T03:07:25;29.70;;;17.73;;
35969;SDS011;22448;51.298;6.430;2022-08-05T03:10:14;26.48;;;16.92;;
35969;SDS011;22448;51.298;6.430;2022-08-05T03:12:50;29.67;;;18.27;;
35969;SDS011;22448;51.298;6.430;2022-08-05T03:15:20;33.40;;;18.88;;
35969;SDS011;22448;51.298;6.430;2022-08-05T03:17:51;30.45;;;19.40;;
35969;SDS011;22448;51.298;6.430;2022-08-05T03:20:24;31.27;;;19.30;;
35969;SDS011;22448;51.298;6.430;2022-08-05T03:22:51;31.55;;;19.55;;
35969;SDS011;22448;51.298;6.430;2022-08-05T03:25:23;32.65;;;19.77;;
35969;SDS011;22448;51.298;6.430;2022-08-05T03:28:11;34.13;;;20.10;;
35969;SDS011;22448;51.298;6.430;2022-08-05T03:30:44;33.97;;;21.60;;
35969;SDS011;22448;51.298;6.430;2022-08-05T03:33:12;33.70;;;21.77;;
35969;SDS011;22448;51.298;6.430;2022-08-05T03:35:40;33.60;;;21.60;;
35969;SDS011;22448;51.298;6.430;2022-08-05T03:38:11;30.77;;;22.23;;
35969;SDS011;22448;51.298;6.430;2022-08-05T03:40:40;33.42;;;21.70;;
35969;SDS011;22448;51.298;6.430;2022-08-05T03:43:14;36.17;;;22.17;;
35969;SDS011;22448;51.298;6.430;2022-08-05T03:46:02;36.72;;;22.35;;
35969;SDS011;22448;51.298;6.430;2022-08-05T03:48:30;31.20;;;21.35;;
35969;SDS011;22448;51.298;6.430;2022-08-05T03:51:04;29.50;;;20.58;;
35969;SDS011;22448;51.298;6.430;2022-08-05T03:57:29;29.95;;;21.77;;
35969;SDS011;22448;51.298;6.430;2022-08-05T04:00:12;30.95;;;21.10;;
35969;SDS011;22448;51.298;6.430;2022-08-05T04:02:43;25.98;;;19.85;;
35969;SDS011;22448;51.298;6.430;2022-08-05T04:05:28;31.67;;;21.05;;
35969;SDS011;22448;51.298;6.430;2022-08-05T04:08:00;37.10;;;21.30;;
35969;SDS011;22448;51.298;6.430;2022-08-05T04:10:57;30.38;;;19.58;;
35969;SDS011;22448;51.298;6.430;2022-08-05T04:13:25;35.33;;;20.92;;
35969;SDS011;22448;51.298;6.430;2022-08-05T04:16:13;32.28;;;20.80;;
35969;SDS011;22448;51.298;6.430;2022-08-05T04:18:40;28.80;;;20.13;;
35969;SDS011;22448;51.298;6.430;2022-08-05T04:21:07;31.13;;;20.40;;
35969;SDS011;22448;51.298;6.430;2022-08-05T04:23:36;28.83;;;19.80;;
35969;SDS011;22448;51.298;6.430;2022-08-05T04:26:24;28.13;;;20.02;;
35969;SDS011;22448;51.298;6.430;2022-08-05T04:28:58;32.40;;;20.00;;
35969;SDS011;22448;51.298;6.430;2022-08-05T04:31:25;27.20;;;19.10;;
35969;SDS011;22448;51.298;6.430;2022-08-05T04:34:04;32.95;;;20.13;;
35969;SDS011;22448;51.298;6.430;2022-08-05T04:36:51;31.30;;;19.90;;
35969;SDS011;22448;51.298;6.430;2022-08-05T04:39:18;27.63;;;19.08;;
35969;SDS011;22448;51.298;6.430;2022-08-05T04:41:46;23.60;;;18.15;;
35969;SDS011;22448;51.298;6.430;2022-08-05T04:44:14;25.90;;;20.27;;
35969;SDS011;22448;51.298;6.430;2022-08-05T04:46:58;30.63;;;21.35;;
35969;SDS011;22448;51.298;6.430;2022-08-05T04:49:36;32.20;;;20.73;;
35969;SDS011;22448;51.298;6.430;2022-08-05T04:52:24;24.75;;;19.52;;
35969;SDS011;22448;51.298;6.430;2022-08-05T04:54:53;28.13;;;20.27;;
35969;SDS011;22448;51.298;6.430;2022-08-05T04:57:23;33.22;;;21.77;;
35969;SDS011;22448;51.298;6.430;2022-08-05T04:59:55;33.20;;;22.05;;
35969;SDS011;22448;51.298;6.430;2022-08-05T05:02:25;27.25;;;21.30;;
35969;SDS011;22448;51.298;6.430;2022-08-05T05:05:07;32.63;;;21.35;;
35969;SDS011;22448;51.298;6.430;2022-08-05T05:07:54;30.30;;;20.95;;
35969;SDS011;22448;51.298;6.430;2022-08-05T05:10:31;29.58;;;21.45;;
35969;SDS011;22448;51.298;6.430;2022-08-05T05:13:21;29.70;;;20.67;;
35969;SDS011;22448;51.298;6.430;2022-08-05T05:15:48;33.47;;;21.90;;
35969;SDS011;22448;51.298;6.430;2022-08-05T05:18:27;33.80;;;22.50;;
35969;SDS011;22448;51.298;6.430;2022-08-05T05:21:00;32.23;;;20.43;;
35969;SDS011;22448;51.298;6.430;2022-08-05T05:23:29;29.48;;;19.52;;
35969;SDS011;22448;51.298;6.430;2022-08-05T05:26:16;27.80;;;17.83;;
35969;SDS011;22448;51.298;6.430;2022-08-05T05:28:43;28.65;;;17.90;;
35969;SDS011;22448;51.298;6.430;2022-08-05T05:31:11;26.48;;;17.65;;
35969;SDS011;22448;51.298;6.430;2022-08-05T05:33:38;33.15;;;17.73;;
35969;SDS011;22448;51.298;6.430;2022-08-05T05:36:25;27.17;;;17.65;;
35969;SDS011;22448;51.298;6.430;2022-08-05T05:38:55;29.25;;;17.90;;
35969;SDS011;22448;51.298;6.430;2022-08-05T05:41:23;29.13;;;16.10;;
35969;SDS011;22448;51.298;6.430;2022-08-05T05:43:50;25.70;;;14.93;;
35969;SDS011;22448;51.298;6.430;2022-08-05T05:46:24;23.83;;;14.82;;
35969;SDS011;22448;51.298;6.430;2022-08-05T05:48:51;26.52;;;13.20;;
35969;SDS011;22448;51.298;6.430;2022-08-05T05:51:22;28.52;;;13.05;;
35969;SDS011;22448;51.298;6.430;2022-08-05T05:53:53;29.27;;;12.77;;
35969;SDS011;22448;51.298;6.430;2022-08-05T05:56:29;20.15;;;12.73;;
35969;SDS011;22448;51.298;6.430;2022-08-05T05:59:00;18.88;;;11.73;;
35969;SDS011;22448;51.298;6.430;2022-08-05T06:01:31;26.05;;;12.25;;
35969;SDS011;22448;51.298;6.430;2022-08-05T06:04:23;17.75;;;11.27;;
35969;SDS011;22448;51.298;6.430;2022-08-05T06:06:50;19.33;;;11.60;;
35969;SDS011;22448;51.298;6.430;2022-08-05T06:09:17;22.10;;;11.50;;
35969;SDS011;22448;51.298;6.430;2022-08-05T06:12:05;43.25;;;12.63;;
35969;SDS011;22448;51.298;6.430;2022-08-05T06:14:37;28.60;;;11.10;;
35969;SDS011;22448;51.298;6.430;2022-08-05T06:17:05;16.83;;;9.95;;
35969;SDS011;22448;51.298;6.430;2022-08-05T06:19:52;24.25;;;11.23;;
35969;SDS011;22448;51.298;6.430;2022-08-05T06:22:28;26.27;;;10.98;;
35969;SDS011;22448;51.298;6.430;2022-08-05T06:25:00;21.75;;;10.57;;
35969;SDS011;22448;51.298;6.430;2022-08-05T06:27:47;18.52;;;10.93;;
35969;SDS011;22448;51.298;6.430;2022-08-05T06:30:34;22.48;;;9.77;;
35969;SDS011;22448;51.298;6.430;2022-08-05T06:33:01;20.70;;;10.15;;
35969;SDS011;22448;51.298;6.430;2022-08-05T06:35:28;18.40;;;10.05;;
35969;SDS011;22448;51.298;6.430;2022-08-05T06:38:15;16.70;;;8.85;;
35969;SDS011;22448;51.298;6.430;2022-08-05T06:40:42;19.23;;;8.40;;
35969;SDS011;22448;51.298;6.430;2022-08-05T06:43:10;16.58;;;7.60;;
35969;SDS011;22448;51.298;6.430;2022-08-05T06:45:58;13.25;;;7.57;;
35969;SDS011;22448;51.298;6.430;2022-08-05T06:48:33;15.63;;;8.52;;
35969;SDS011;22448;51.298;6.430;2022-08-05T06:51:21;14.43;;;7.47;;
35969;SDS011;22448;51.298;6.430;2022-08-05T06:54:00;17.05;;;7.65;;
35969;SDS011;22448;51.298;6.430;2022-08-05T06:56:29;13.68;;;7.43;;
35969;SDS011;22448;51.298;6.430;2022-08-05T06:59:01;17.67;;;7.82;;
35969;SDS011;22448;51.298;6.430;2022-08-05T07:01:37;11.65;;;7.03;;
35969;SDS011;22448;51.298;6.430;2022-08-05T07:04:08;15.07;;;7.55;;
35969;SDS011;22448;51.298;6.430;2022-08-05T07:06:35;18.65;;;7.25;;
35969;SDS011;22448;51.298;6.430;2022-08-05T07:09:03;13.55;;;7.50;;
35969;SDS011;22448;51.298;6.430;2022-08-05T07:11:31;16.95;;;7.47;;
35969;SDS011;22448;51.298;6.430;2022-08-05T07:14:03;15.82;;;6.75;;
35969;SDS011;22448;51.298;6.430;2022-08-05T07:16:56;17.48;;;6.95;;
35969;SDS011;22448;51.298;6.430;2022-08-05T07:19:47;13.45;;;6.50;;
35969;SDS011;22448;51.298;6.430;2022-08-05T07:22:35;14.30;;;6.32;;
35969;SDS011;22448;51.298;6.430;2022-08-05T07:25:03;12.43;;;6.30;;
35969;SDS011;22448;51.298;6.430;2022-08-05T07:27:51;19.05;;;6.80;;
35969;SDS011;22448;51.298;6.430;2022-08-05T07:30:31;15.85;;;6.28;;
35969;SDS011;22448;51.298;6.430;2022-08-05T07:33:05;11.65;;;6.00;;
35969;SDS011;22448;51.298;6.430;2022-08-05T07:35:36;12.02;;;5.88;;
35969;SDS011;22448;51.298;6.430;2022-08-05T07:38:24;15.88;;;6.15;;
35969;SDS011;22448;51.298;6.430;2022-08-05T07:41:01;9.40;;;5.93;;
35969;SDS011;22448;51.298;6.430;2022-08-05T07:43:50;15.63;;;6.05;;
35969;SDS011;22448;51.298;6.430;2022-08-05T07:46:20;17.42;;;6.30;;
35969;SDS011;22448;51.298;6.430;2022-08-05T07:48:51;11.68;;;5.82;;
35969;SDS011;22448;51.298;6.430;2022-08-05T07:51:31;18.58;;;6.20;;
35969;SDS011;22448;51.298;6.430;2022-08-05T07:54:03;12.32;;;5.07;;
35969;SDS011;22448;51.298;6.430;2022-08-05T07:56:33;17.83;;;5.75;;
35969;SDS011;22448;51.298;6.430;2022-08-05T07:59:20;11.75;;;5.93;;
35969;SDS011;22448;51.298;6.430;2022-08-05T08:02:05;12.55;;;6.13;;
35969;SDS011;22448;51.298;6.430;2022-08-05T08:04:41;12.65;;;5.50;;
35969;SDS011;22448;51.298;6.430;2022-08-05T08:07:10;18.95;;;5.82;;
35969;SDS011;22448;51.298;6.430;2022-08-05T08:09:38;15.20;;;5.80;;
35969;SDS011;22448;51.298;6.430;2022-08-05T08:12:05;14.35;;;5.20;;
35969;SDS011;22448;51.298;6.430;2022-08-05T08:14:45;12.77;;;4.85;;
35969;SDS011;22448;51.298;6.430;2022-08-05T08:17:12;14.20;;;5.43;;
35969;SDS011;22448;51.298;6.430;2022-08-05T08:19:41;12.48;;;5.13;;
35969;SDS011;22448;51.298;6.430;2022-08-05T08:22:30;15.82;;;5.05;;
35969;SDS011;22448;51.298;6.430;2022-08-05T08:24:58;11.20;;;5.10;;
35969;SDS011;22448;51.298;6.430;2022-08-05T08:27:29;9.45;;;4.28;;
35969;SDS011;22448;51.298;6.430;2022-08-05T08:30:10;13.27;;;5.40;;
35969;SDS011;22448;51.298;6.430;2022-08-05T08:32:58;12.63;;;4.90;;
35969;SDS011;22448;51.298;6.430;2022-08-05T08:35:34;11.25;;;5.03;;
35969;SDS011;22448;51.298;6.430;2022-08-05T08:40:37;11.73;;;4.28;;
35969;SDS011;22448;51.298;6.430;2022-08-05T08:43:05;12.30;;;5.20;;
35969;SDS011;22448;51.298;6.430;2022-08-05T08:45:53;17.85;;;4.70;;
35969;SDS011;22448;51.298;6.430;2022-08-05T08:48:23;9.77;;;4.35;;
35969;SDS011;22448;51.298;6.430;2022-08-05T08:51:12;14.02;;;4.82;;
35969;SDS011;22448;51.298;6.430;2022-08-05T08:54:00;13.07;;;4.55;;
35969;SDS011;22448;51.298;6.430;2022-08-05T08:56:27;11.65;;;4.60;;
35969;SDS011;22448;51.298;6.430;2022-08-05T08:58:55;11.00;;;4.00;;
35969;SDS011;22448;51.298;6.430;2022-08-05T09:01:26;9.65;;;3.83;;
35969;SDS011;22448;51.298;6.430;2022-08-05T09:03:53;9.23;;;4.35;;
35969;SDS011;22448;51.298;6.430;2022-08-05T09:06:24;11.38;;;4.45;;
35969;SDS011;22448;51.298;6.430;2022-08-05T09:08:59;11.68;;;4.45;;
35969;SDS011;22448;51.298;6.430;2022-08-05T09:11:27;10.38;;;3.97;;
35969;SDS011;22448;51.298;6.430;2022-08-05T09:14:15;13.68;;;3.92;;
35969;SDS011;22448;51.298;6.430;2022-08-05T09:17:04;10.57;;;3.88;;
35969;SDS011;22448;51.298;6.430;2022-08-05T09:19:41;11.50;;;3.58;;
35969;SDS011;22448;51.298;6.430;2022-08-05T09:22:28;8.18;;;3.20;;
35969;SDS011;22448;51.298;6.430;2022-08-05T09:25:18;11.60;;;4.20;;
35969;SDS011;22448;51.298;6.430;2022-08-05T09:30:53;7.72;;;3.47;;
35969;SDS011;22448;51.298;6.430;2022-08-05T09:33:22;13.57;;;4.28;;
35969;SDS011;22448;51.298;6.430;2022-08-05T09:36:02;7.80;;;3.35;;
35969;SDS011;22448;51.298;6.430;2022-08-05T09:39:04;11.55;;;3.95;;
35969;SDS011;22448;51.298;6.430;2022-08-05T09:44:33;9.55;;;3.83;;
35969;SDS011;22448;51.298;6.430;2022-08-05T09:50:32;12.35;;;3.72;;
35969;SDS011;22448;51.298;6.430;2022-08-05T09:53:10;9.00;;;3.53;;
35969;SDS011;22448;51.298;6.430;2022-08-05T09:55:58;8.05;;;2.80;;
35969;SDS011;22448;51.298;6.430;2022-08-05T09:58:38;7.22;;;3.03;;
35969;SDS011;22448;51.298;6.430;2022-08-05T10:01:10;13.48;;;3.45;;
35969;SDS011;22448;51.298;6.430;2022-08-05T10:03:57;11.48;;;3.38;;
35969;SDS011;22448;51.298;6.430;2022-08-05T10:06:29;7.80;;;3.33;;
35969;SDS011;22448;51.298;6.430;2022-08-05T10:09:16;10.32;;;3.88;;
35969;SDS011;22448;51.298;6.430;2022-08-05T10:12:08;10.38;;;3.95;;
35969;SDS011;22448;51.298;6.430;2022-08-05T10:21:04;9.65;;;3.10;;
35969;SDS011;22448;51.298;6.430;2022-08-05T10:23:41;10.68;;;3.60;;
35969;SDS011;22448;51.298;6.430;2022-08-05T10:26:25;8.00;;;3.00;;
35969;SDS011;22448;51.298;6.430;2022-08-05T10:28:58;8.85;;;3.75;;
35969;SDS011;22448;51.298;6.430;2022-08-05T10:31:25;10.98;;;3.13;;
35969;SDS011;22448;51.298;6.430;2022-08-05T10:34:12;5.97;;;2.35;;
35969;SDS011;22448;51.298;6.430;2022-08-05T10:36:40;7.40;;;2.70;;
35969;SDS011;22448;51.298;6.430;2022-08-05T10:39:14;8.10;;;2.92;;
35969;SDS011;22448;51.298;6.430;2022-08-05T10:42:01;7.63;;;3.40;;
35969;SDS011;22448;51.298;6.430;2022-08-05T10:44:36;10.98;;;3.53;;
35969;SDS011;22448;51.298;6.430;2022-08-05T10:47:11;11.40;;;3.40;;
35969;SDS011;22448;51.298;6.430;2022-08-05T10:50:03;11.05;;;3.58;;
35969;SDS011;22448;51.298;6.430;2022-08-05T10:52:55;11.90;;;3.97;;
35969;SDS011;22448;51.298;6.430;2022-08-05T10:55:25;12.32;;;3.85;;
35969;SDS011;22448;51.298;6.430;2022-08-05T10:58:06;13.18;;;4.35;;
35969;SDS011;22448;51.298;6.430;2022-08-05T11:00:36;11.82;;;3.55;;
35969;SDS011;22448;51.298;6.430;2022-08-05T11:06:11;6.53;;;3.63;;
35969;SDS011;22448;51.298;6.430;2022-08-05T11:11:42;12.35;;;3.95;;
35969;SDS011;22448;51.298;6.430;2022-08-05T11:14:29;11.40;;;4.10;;
35969;SDS011;22448;51.298;6.430;2022-08-05T11:28:59;9.23;;;4.13;;
35969;SDS011;22448;51.298;6.430;2022-08-05T11:31:39;9.77;;;3.92;;
35969;SDS011;22448;51.298;6.430;2022-08-05T11:34:38;10.80;;;3.75;;
35969;SDS011;22448;51.298;6.430;2022-08-05T11:38:02;10.75;;;4.57;;
35969;SDS011;22448;51.298;6.430;2022-08-05T11:46:36;9.50;;;4.20;;
35969;SDS011;22448;51.298;6.430;2022-08-05T11:49:26;16.13;;;4.38;;
35969;SDS011;22448;51.298;6.430;2022-08-05T11:51:53;12.27;;;4.28;;
35969;SDS011;22448;51.298;6.430;2022-08-05T11:54:29;10.98;;;5.07;;
35969;SDS011;22448;51.298;6.430;2022-08-05T11:57:03;11.00;;;4.03;;
35969;SDS011;22448;51.298;6.430;2022-08-05T11:59:50;9.40;;;3.90;;
35969;SDS011;22448;51.298;6.430;2022-08-05T12:02:16;10.60;;;4.07;;
35969;SDS011;22448;51.298;6.430;2022-08-05T12:04:59;8.57;;;3.67;;
35969;SDS011;22448;51.298;6.430;2022-08-05T12:07:34;9.75;;;2.90;;
35969;SDS011;22448;51.298;6.430;2022-08-05T12:10:26;6.03;;;2.63;;
35969;SDS011;22448;51.298;6.430;2022-08-05T12:13:09;6.93;;;2.80;;
35969;SDS011;22448;51.298;6.430;2022-08-05T12:15:45;12.07;;;3.17;;
35969;SDS011;22448;51.298;6.430;2022-08-05T12:18:16;14.75;;;4.00;;
35969;SDS011;22448;51.298;6.430;2022-08-05T12:20:49;11.73;;;4.30;;
35969;SDS011;22448;51.298;6.430;2022-08-05T12:23:16;9.95;;;3.50;;
35969;SDS011;22448;51.298;6.430;2022-08-05T12:28:32;9.77;;;3.05;;
35969;SDS011;22448;51.298;6.430;2022-08-05T12:31:03;10.18;;;3.40;;
35969;SDS011;22448;51.298;6.430;2022-08-05T12:33:31;8.35;;;3.15;;
35969;SDS011;22448;51.298;6.430;2022-08-05T12:36:02;11.05;;;4.03;;
35969;SDS011;22448;51.298;6.430;2022-08-05T12:38:37;8.85;;;3.00;;
35969;SDS011;22448;51.298;6.430;2022-08-05T12:41:13;9.68;;;3.83;;
35969;SDS011;22448;51.298;6.430;2022-08-05T12:43:52;8.55;;;2.72;;
35969;SDS011;22448;51.298;6.430;2022-08-05T12:46:23;9.43;;;3.38;;
35969;SDS011;22448;51.298;6.430;2022-08-05T12:48:57;9.27;;;3.40;;
35969;SDS011;22448;51.298;6.430;2022-08-05T12:54:33;9.68;;;3.20;;
35969;SDS011;22448;51.298;6.430;2022-08-05T12:57:05;7.50;;;2.90;;
35969;SDS011;22448;51.298;6.430;2022-08-05T12:59:44;8.98;;;3.40;;
35969;SDS011;22448;51.298;6.430;2022-08-05T13:02:35;11.40;;;3.42;;
35969;SDS011;22448;51.298;6.430;2022-08-05T13:05:05;10.35;;;2.88;;
35969;SDS011;22448;51.298;6.430;2022-08-05T13:07:32;4.85;;;1.85;;
35969;SDS011;22448;51.298;6.430;2022-08-05T13:10:19;5.85;;;2.05;;
35969;SDS011;22448;51.298;6.430;2022-08-05T13:12:47;5.20;;;2.10;;
35969;SDS011;22448;51.298;6.430;2022-08-05T13:15:27;5.97;;;2.15;;
35969;SDS011;22448;51.298;6.430;2022-08-05T13:18:16;13.20;;;2.17;;
35969;SDS011;22448;51.298;6.430;2022-08-05T13:20:46;9.93;;;2.50;;
35969;SDS011;22448;51.298;6.430;2022-08-05T13:23:15;8.98;;;2.53;;
35969;SDS011;22448;51.298;6.430;2022-08-05T13:25:48;8.02;;;1.80;;
35969;SDS011;22448;51.298;6.430;2022-08-05T13:28:27;4.15;;;1.60;;
35969;SDS011;22448;51.298;6.430;2022-08-05T13:30:54;6.35;;;1.90;;
35969;SDS011;22448;51.298;6.430;2022-08-05T13:33:22;8.45;;;1.63;;
35969;SDS011;22448;51.298;6.430;2022-08-05T13:36:10;5.05;;;1.80;;
35969;SDS011;22448;51.298;6.430;2022-08-05T13:38:39;6.35;;;1.70;;
35969;SDS011;22448;51.298;6.430;2022-08-05T13:41:11;4.18;;;1.50;;
35969;SDS011;22448;51.298;6.430;2022-08-05T13:46:23;3.28;;;1.33;;
35969;SDS011;22448;51.298;6.430;2022-08-05T13:49:11;6.57;;;1.60;;
35969;SDS011;22448;51.298;6.430;2022-08-05T13:51:39;6.38;;;1.70;;
35969;SDS011;22448;51.298;6.430;2022-08-05T13:54:12;4.28;;;1.67;;
35969;SDS011;22448;51.298;6.430;2022-08-05T13:56:45;7.00;;;1.50;;
35969;SDS011;22448;51.298;6.430;2022-08-05T13:59:26;14.38;;;2.00;;
35969;SDS011;22448;51.298;6.430;2022-08-05T14:01:57;5.22;;;1.40;;
35969;SDS011;22448;51.298;6.430;2022-08-05T14:04:27;5.30;;;1.10;;
35969;SDS011;22448;51.298;6.430;2022-08-05T14:07:21;5.13;;;1.30;;
35969;SDS011;22448;51.298;6.430;2022-08-05T14:10:14;5.88;;;1.30;;
35969;SDS011;22448;51.298;6.430;2022-08-05T14:12:53;7.70;;;0.95;;
35969;SDS011;22448;51.298;6.430;2022-08-05T14:15:23;4.90;;;1.30;;
35969;SDS011;22448;51.298;6.430;2022-08-05T14:18:11;6.55;;;1.15;;
35969;SDS011;22448;51.298;6.430;2022-08-05T14:20:43;2.85;;;0.90;;
35969;SDS011;22448;51.298;6.430;2022-08-05T14:23:14;3.80;;;1.02;;
35969;SDS011;22448;51.298;6.430;2022-08-05T14:25:52;7.10;;;1.20;;
35969;SDS011;22448;51.298;6.430;2022-08-05T14:28:23;1.70;;;0.90;;
35969;SDS011;22448;51.298;6.430;2022-08-05T14:30:53;10.82;;;1.20;;
35969;SDS011;22448;51.298;6.430;2022-08-05T14:33:21;5.30;;;0.80;;
35969;SDS011;22448;51.298;6.430;2022-08-05T14:35:49;4.47;;;1.00;;
35969;SDS011;22448;51.298;6.430;2022-08-05T14:38:20;5.88;;;0.88;;
35969;SDS011;22448;51.298;6.430;2022-08-05T14:41:02;1.95;;;0.80;;
35969;SDS011;22448;51.298;6.430;2022-08-05T14:43:33;5.07;;;1.02;;
35969;SDS011;22448;51.298;6.430;2022-08-05T14:46:22;6.63;;;0.80;;
35969;SDS011;22448;51.298;6.430;2022-08-05T14:48:55;3.15;;;0.82;;
35969;SDS011;22448;51.298;6.430;2022-08-05T14:51:25;3.55;;;0.93;;
35969;SDS011;22448;51.298;6.430;2022-08-05T14:53:57;2.97;;;1.10;;
35969;SDS011;22448;51.298;6.430;2022-08-05T14:56:44;7.78;;;0.68;;
35969;SDS011;22448;51.298;6.430;2022-08-05T14:59:13;2.67;;;0.77;;
35969;SDS011;22448;51.298;6.430;2022-08-05T15:01:41;1.92;;;0.73;;
35969;SDS011;22448;51.298;6.430;2022-08-05T15:04:15;4.57;;;0.73;;
35969;SDS011;22448;51.298;6.430;2022-08-05T15:06:50;1.38;;;0.75;;
35969;SDS011;22448;51.298;6.430;2022-08-05T15:09:18;4.20;;;0.70;;
35969;SDS011;22448;51.298;6.430;2022-08-05T15:12:07;2.05;;;0.60;;
35969;SDS011;22448;51.298;6.430;2022-08-05T15:14:42;5.10;;;0.52;;
35969;SDS011;22448;51.298;6.430;2022-08-05T15:17:19;5.10;;;0.80;;
35969;SDS011;22448;51.298;6.430;2022-08-05T15:20:09;3.60;;;0.60;;
35969;SDS011;22448;51.298;6.430;2022-08-05T15:22:45;1.92;;;0.52;;
35969;SDS011;22448;51.298;6.430;2022-08-05T15:25:19;4.95;;;1.05;;
35969;SDS011;22448;51.298;6.430;2022-08-05T15:28:06;10.38;;;1.05;;
35969;SDS011;22448;51.298;6.430;2022-08-05T15:33:05;4.13;;;0.82;;
35969;SDS011;22448;51.298;6.430;2022-08-05T15:35:32;15.05;;;1.17;;
35969;SDS011;22448;51.298;6.430;2022-08-05T15:38:10;3.75;;;1.08;;
35969;SDS011;22448;51.298;6.430;2022-08-05T15:40:57;3.60;;;0.90;;
35969;SDS011;22448;51.298;6.430;2022-08-05T15:43:44;1.67;;;0.70;;
35969;SDS011;22448;51.298;6.430;2022-08-05T15:46:12;2.58;;;0.60;;
35969;SDS011;22448;51.298;6.430;2022-08-05T15:48:41;2.50;;;0.63;;
35969;SDS011;22448;51.298;6.430;2022-08-05T15:51:26;2.17;;;0.55;;
35969;SDS011;22448;51.298;6.430;2022-08-05T15:54:14;4.75;;;0.77;;
35969;SDS011;22448;51.298;6.430;2022-08-05T15:56:41;1.92;;;0.77;;
35969;SDS011;22448;51.298;6.430;2022-08-05T15:59:09;5.43;;;0.80;;
35969;SDS011;22448;51.298;6.430;2022-08-05T16:01:47;1.85;;;0.60;;
35969;SDS011;22448;51.298;6.430;2022-08-05T16:04:19;6.50;;;1.00;;
35969;SDS011;22448;51.298;6.430;2022-08-05T16:06:52;2.70;;;0.85;;
35969;SDS011;22448;51.298;6.430;2022-08-05T16:09:21;4.25;;;0.80;;
35969;SDS011;22448;51.298;6.430;2022-08-05T16:11:50;5.50;;;0.90;;
35969;SDS011;22448;51.298;6.430;2022-08-05T16:14:19;3.08;;;0.80;;
35969;SDS011;22448;51.298;6.430;2022-08-05T16:16:48;10.23;;;1.30;;
35969;SDS011;22448;51.298;6.430;2022-08-05T16:19:15;1.80;;;0.60;;
35969;SDS011;22448;51.298;6.430;2022-08-05T16:22:03;6.13;;;0.90;;
35969;SDS011;22448;51.298;6.430;2022-08-05T16:24:32;1.58;;;0.70;;
35969;SDS011;22448;51.298;6.430;2022-08-05T16:27:07;1.65;;;0.50;;
35969;SDS011;22448;51.298;6.430;2022-08-05T16:29:41;1.70;;;0.45;;
35969;SDS011;22448;51.298;6.430;2022-08-05T16:32:17;3.70;;;1.05;;
35969;SDS011;22448;51.298;6.430;2022-08-05T16:34:55;9.00;;;0.70;;
35969;SDS011;22448;51.298;6.430;2022-08-05T16:37:24;1.83;;;0.80;;